Time;durP1;ratioP1;P1;durP2;ratioP2;P2;SDS_P1;SDS_P2;PMS_P1;PMS_P2;Temp;Humidity;BMP_temperature;BMP_pressure;BME280_temperature;BME280_humidity;BME280_pressure;Samples;Min_cycle;Max_cycle;Signal;HPM_P1;HPM_P2
2022/08/04 00:01:32;;;;;;;;;;;24.70;57.70;;;;;;5071450;28;19935;-63
2022/08/04 00:04:02;;;;;;;;;;;24.70;57.70;;;;;;5072895;28;20011;-63
2022/08/04 00:06:32;;;;;;;;;;;24.70;57.70;;;;;;5082430;28;20080;-63
2022/08/04 00:09:00;;;;;;;;;;;24.70;57.70;;;;;;5100780;27;19928;-63
2022/08/04 00:11:28;;;;;;;;;;;24.70;57.70;;;;;;5097086;28;19925;-63
2022/08/04 00:13:57;;;;;;;;;;;24.70;57.80;;;;;;5078311;28;19959;-63
2022/08/04 00:16:24;;;;;;;;;;;24.70;57.80;;;;;;5102681;28;19994;-63
2022/08/04 00:18:53;;;;;;;;;;;24.70;57.80;;;;;;5088881;28;19921;-63
2022/08/04 00:21:20;;;;;;;;;;;24.70;57.80;;;;;;5089376;28;19931;-64
2022/08/04 00:23:47;;;;;;;;;;;24.70;57.80;;;;;;5081373;28;20011;-63
2022/08/04 00:26:14;;;;;;;;;;;24.70;57.80;;;;;;5091571;28;20434;-63
2022/08/04 00:28:41;;;;;;;;;;;24.70;57.80;;;;;;5089497;28;19939;-62
2022/08/04 00:31:08;;;;;;;;;;;24.70;57.90;;;;;;5087900;28;19947;-63
2022/08/04 00:33:35;;;;;;;;;;;24.70;57.90;;;;;;5064139;28;19925;-63
2022/08/04 00:36:03;;;;;;;;;;;24.70;57.90;;;;;;5085242;28;19970;-63
2022/08/04 00:38:30;;;;;;;;;;;24.70;57.90;;;;;;5066833;28;19928;-63
2022/08/04 00:40:59;;;;;;;;;;;24.70;57.90;;;;;;5072115;28;19973;-63
2022/08/04 00:43:28;;;;;;;;;;;24.70;57.90;;;;;;5055126;28;19951;-63
2022/08/04 00:46:19;;;;;;;;;;;24.70;57.90;;;;;;5058040;28;19946;-64
2022/08/04 00:48:56;;;;;;;;;;;24.70;57.90;;;;;;5091424;27;19931;-63
2022/08/04 00:51:26;;;;;;;;;;;24.70;58.00;;;;;;5092130;28;19920;-63
2022/08/04 00:53:55;;;;;;;;;;;24.70;58.00;;;;;;5086574;28;19924;-63
2022/08/04 00:56:26;;;;;;;;;;;24.70;57.90;;;;;;5069653;28;19920;-63
2022/08/04 00:59:02;;;;;;;;;;;24.70;57.90;;;;;;5069108;28;20335;-63
2022/08/04 01:01:33;;;;;;;;;;;24.70;58.00;;;;;;5101848;28;19959;-63
2022/08/04 01:04:02;;;;;;;;;;;24.70;58.00;;;;;;5069573;28;19924;-63
2022/08/04 01:06:35;;;;;;;;;;;24.70;58.00;;;;;;5082861;28;19960;-63
2022/08/04 01:09:09;;;;;;;;;;;24.70;58.00;;;;;;5075957;28;19920;-63
2022/08/04 01:11:43;;;;;;;;;;;24.70;58.00;;;;;;5071803;28;19920;-63
2022/08/04 01:14:17;;;;;;;;;;;24.70;58.00;;;;;;5102714;28;19932;-63
2022/08/04 01:16:47;;;;;;;;;;;24.70;58.10;;;;;;5070410;28;19950;-62
2022/08/04 01:19:15;;;;;;;;;;;24.70;58.70;;;;;;5102914;28;19920;-63
2022/08/04 01:22:15;;;;;;;;;;;24.70;58.10;;;;;;5102215;28;19932;-63
2022/08/04 01:25:00;;;;;;;;;;;24.70;58.10;;;;;;5084682;28;20008;-62
2022/08/04 01:27:32;;;;;;;;;;;24.60;58.10;;;;;;5048823;28;19998;-63
2022/08/04 01:30:00;;;;;;;;;;;24.70;58.20;;;;;;5075387;28;19966;-63
2022/08/04 01:32:28;;;;;;;;;;;24.60;58.10;;;;;;5068645;28;19920;-63
2022/08/04 01:34:56;;;;;;;;;;;24.70;58.20;;;;;;5066707;28;20002;-63
2022/08/04 01:37:29;;;;;;;;;;;24.60;58.10;;;;;;5071028;28;20358;-63
2022/08/04 01:40:00;;;;;;;;;;;24.70;58.20;;;;;;5077297;28;19989;-63
2022/08/04 01:42:27;;;;;;;;;;;24.60;58.20;;;;;;5103720;28;19934;-63
2022/08/04 01:44:53;;;;;;;;;;;24.70;58.30;;;;;;5100679;28;19925;-63
2022/08/04 01:47:22;;;;;;;;;;;24.60;58.20;;;;;;5102718;28;19926;-63
2022/08/04 01:49:49;;;;;;;;;;;24.60;58.20;;;;;;5076794;28;20285;-63
2022/08/04 01:52:16;;;;;;;;;;;24.60;58.20;;;;;;5086297;28;19921;-63
2022/08/04 01:54:43;;;;;;;;;;;24.60;58.20;;;;;;5085868;28;19920;-63
2022/08/04 01:57:10;;;;;;;;;;;24.60;58.20;;;;;;5070580;28;19928;-63
2022/08/04 01:59:37;;;;;;;;;;;24.60;58.20;;;;;;5059522;28;20366;-63
2022/08/04 02:02:04;;;;;;;;;;;24.60;58.30;;;;;;5070343;28;20007;-63
2022/08/04 02:04:32;;;;;;;;;;;24.60;58.30;;;;;;5067754;28;19920;-63
2022/08/04 02:07:02;;;;;;;;;;;24.60;58.30;;;;;;5103251;28;20435;-63
2022/08/04 02:09:29;;;;;;;;;;;24.60;58.30;;;;;;5074389;28;19967;-63
2022/08/04 02:12:00;;;;;;;;;;;24.60;58.30;;;;;;5098056;28;19951;-63
2022/08/04 02:14:40;;;;;;;;;;;24.60;58.30;;;;;;5092705;28;20315;-63
2022/08/04 02:17:09;;;;;;;;;;;24.60;58.30;;;;;;5061900;28;20434;-63
2022/08/04 02:19:40;;;;;;;;;;;24.60;58.40;;;;;;5067989;28;20052;-63
2022/08/04 02:22:07;;;;;;;;;;;24.60;58.40;;;;;;5101300;28;19927;-63
2022/08/04 02:24:34;;;;;;;;;;;24.60;58.40;;;;;;5084831;28;19926;-63
2022/08/04 02:27:01;;;;;;;;;;;24.60;58.40;;;;;;5098251;28;19970;-63
2022/08/04 02:29:29;;;;;;;;;;;24.60;58.40;;;;;;5068510;28;19924;-63
2022/08/04 02:31:56;;;;;;;;;;;24.60;58.40;;;;;;5085074;28;19957;-63
2022/08/04 02:34:31;;;;;;;;;;;24.60;58.40;;;;;;5060471;28;19959;-63
2022/08/04 02:37:01;;;;;;;;;;;24.60;58.50;;;;;;5085454;28;20431;-63
2022/08/04 02:39:30;;;;;;;;;;;24.60;58.40;;;;;;5084804;28;19924;-63
2022/08/04 02:41:57;;;;;;;;;;;24.60;58.40;;;;;;5050784;28;19921;-63
2022/08/04 02:44:23;;;;;;;;;;;24.60;58.50;;;;;;5059399;28;19963;-63
2022/08/04 02:46:51;;;;;;;;;;;24.60;58.50;;;;;;5089474;28;20427;-63
2022/08/04 02:49:17;;;;;;;;;;;24.60;58.50;;;;;;5081485;28;19951;-63
2022/08/04 02:51:45;;;;;;;;;;;24.60;58.50;;;;;;5072575;28;19925;-63
2022/08/04 02:54:13;;;;;;;;;;;24.60;58.50;;;;;;5072317;28;19928;-63
2022/08/04 02:56:40;;;;;;;;;;;24.60;58.50;;;;;;5096301;28;20015;-63
2022/08/04 02:59:07;;;;;;;;;;;24.60;58.50;;;;;;5085779;28;19928;-63
2022/08/04 03:01:34;;;;;;;;;;;24.60;58.50;;;;;;5075282;28;19921;-63
2022/08/04 03:04:06;;;;;;;;;;;24.60;58.60;;;;;;5083338;28;19956;-63
2022/08/04 03:06:51;;;;;;;;;;;24.60;58.50;;;;;;5070660;28;19944;-63
2022/08/04 03:09:35;;;;;;;;;;;24.60;58.60;;;;;;5086469;28;19931;-63
2022/08/04 03:12:19;;;;;;;;;;;24.60;58.60;;;;;;5086334;28;20016;-63
2022/08/04 03:14:52;;;;;;;;;;;24.60;58.60;;;;;;5070187;28;20011;-63
2022/08/04 03:17:23;;;;;;;;;;;24.60;58.60;;;;;;5096829;28;19927;-63
2022/08/04 03:20:07;;;;;;;;;;;24.60;58.60;;;;;;5056479;28;19936;-63
2022/08/04 03:22:52;;;;;;;;;;;24.60;58.60;;;;;;5088201;28;19920;-63
2022/08/04 03:25:37;;;;;;;;;;;24.60;58.60;;;;;;5068290;28;19935;-63
2022/08/04 03:28:22;;;;;;;;;;;24.60;58.60;;;;;;5065247;28;19920;-63
2022/08/04 03:30:54;;;;;;;;;;;24.60;58.60;;;;;;5092848;28;19928;-64
2022/08/04 03:33:28;;;;;;;;;;;24.60;58.60;;;;;;5104296;28;19978;-63
2022/08/04 03:36:04;;;;;;;;;;;24.60;58.70;;;;;;5081163;28;19947;-63
2022/08/04 03:38:38;;;;;;;;;;;24.60;58.70;;;;;;5102206;28;20289;-63
2022/08/04 03:41:08;;;;;;;;;;;24.60;58.60;;;;;;5064430;28;19999;-64
2022/08/04 03:43:53;;;;;;;;;;;24.60;58.60;;;;;;5104901;28;19924;-63
2022/08/04 03:46:30;;;;;;;;;;;24.60;58.60;;;;;;5072608;28;19921;-63
2022/08/04 03:49:16;;;;;;;;;;;24.60;58.70;;;;;;5072790;28;19975;-63
2022/08/04 03:54:39;;;;;;;;;;;24.60;58.70;;;;;;5096933;28;20251;-63
2022/08/04 03:57:21;;;;;;;;;;;24.60;58.70;;;;;;5104446;28;19974;-63
2022/08/04 04:00:03;;;;;;;;;;;24.60;58.70;;;;;;5067868;28;19982;-63
2022/08/04 04:02:57;;;;;;;;;;;24.60;58.70;;;;;;5069761;28;20312;-63
2022/08/04 04:05:42;;;;;;;;;;;24.60;58.70;;;;;;5044757;28;19927;-63
2022/08/04 04:08:15;;;;;;;;;;;24.60;58.70;;;;;;5079783;28;19920;-63
2022/08/04 04:10:46;;;;;;;;;;;24.60;58.70;;;;;;5078657;28;19932;-63
2022/08/04 04:13:44;;;;;;;;;;;24.60;58.70;;;;;;5072142;28;19920;-63
2022/08/04 04:16:29;;;;;;;;;;;24.60;58.70;;;;;;5070564;28;19974;-63
2022/08/04 04:19:01;;;;;;;;;;;24.60;58.60;;;;;;5067699;28;20325;-62
2022/08/04 04:21:29;;;;;;;;;;;24.60;58.70;;;;;;5063229;28;20033;-63
2022/08/04 04:24:06;;;;;;;;;;;24.60;58.70;;;;;;5081925;28;19935;-62
2022/08/04 04:26:44;;;;;;;;;;;24.60;58.70;;;;;;5071822;28;19921;-62
2022/08/04 04:29:19;;;;;;;;;;;24.60;58.70;;;;;;5102424;28;19928;-62
2022/08/04 04:31:49;;;;;;;;;;;24.60;58.70;;;;;;5071174;28;19920;-62
2022/08/04 04:34:19;;;;;;;;;;;24.60;58.70;;;;;;5067930;28;19936;-62
2022/08/04 04:36:49;;;;;;;;;;;24.60;58.70;;;;;;5066649;28;19928;-62
2022/08/04 04:39:19;;;;;;;;;;;24.60;58.70;;;;;;5070247;28;19956;-62
2022/08/04 04:41:54;;;;;;;;;;;24.60;58.70;;;;;;5103160;27;20424;-62
2022/08/04 04:44:29;;;;;;;;;;;24.60;58.70;;;;;;5098621;28;19982;-62
2022/08/04 04:46:58;;;;;;;;;;;24.60;58.70;;;;;;5090446;28;20381;-62
2022/08/04 04:49:26;;;;;;;;;;;24.60;58.70;;;;;;5084152;28;19921;-62
2022/08/04 04:51:55;;;;;;;;;;;24.60;58.70;;;;;;5071507;28;19974;-62
2022/08/04 04:54:26;;;;;;;;;;;24.60;58.70;;;;;;5086350;28;20175;-62
2022/08/04 04:56:55;;;;;;;;;;;24.60;58.70;;;;;;5067181;28;19921;-62
2022/08/04 04:59:22;;;;;;;;;;;24.60;58.70;;;;;;5094650;28;19978;-62
2022/08/04 05:02:07;;;;;;;;;;;24.60;58.70;;;;;;5089430;28;19990;-62
2022/08/04 05:05:01;;;;;;;;;;;24.60;58.70;;;;;;5069138;28;19920;-62
2022/08/04 05:07:34;;;;;;;;;;;24.60;58.70;;;;;;5067764;28;20007;-62
2022/08/04 05:10:06;;;;;;;;;;;24.60;58.70;;;;;;5084108;28;19924;-62
2022/08/04 05:12:39;;;;;;;;;;;24.60;58.80;;;;;;5085995;28;20357;-62
2022/08/04 05:15:07;;;;;;;;;;;24.60;58.80;;;;;;5068659;28;20024;-62
2022/08/04 05:17:34;;;;;;;;;;;24.60;58.70;;;;;;5069706;28;19921;-62
2022/08/04 05:20:01;;;;;;;;;;;24.60;58.70;;;;;;5069715;28;20366;-62
2022/08/04 05:22:29;;;;;;;;;;;24.60;58.70;;;;;;5095622;28;19921;-62
2022/08/04 05:24:59;;;;;;;;;;;24.50;58.70;;;;;;5083728;28;19928;-62
2022/08/04 05:27:28;;;;;;;;;;;24.60;58.70;;;;;;5101946;28;19931;-62
2022/08/04 05:29:56;;;;;;;;;;;24.60;58.80;;;;;;5124366;27;19924;-62
2022/08/04 05:32:24;;;;;;;;;;;24.60;58.70;;;;;;5067604;28;19924;-62
2022/08/04 05:34:52;;;;;;;;;;;24.60;58.80;;;;;;5069806;28;20144;-62
2022/08/04 05:37:19;;;;;;;;;;;24.60;58.70;;;;;;5076875;28;20250;-62
2022/08/04 05:39:46;;;;;;;;;;;24.60;58.70;;;;;;5082160;28;19928;-62
2022/08/04 05:42:13;;;;;;;;;;;24.60;58.70;;;;;;5107445;27;19920;-62
2022/08/04 05:44:41;;;;;;;;;;;24.60;58.80;;;;;;5067566;28;19928;-61
2022/08/04 05:47:08;;;;;;;;;;;24.60;58.70;;;;;;5116351;27;20010;-62
2022/08/04 05:49:35;;;;;;;;;;;24.60;58.80;;;;;;5085351;28;19942;-63
2022/08/04 05:52:02;;;;;;;;;;;24.60;58.70;;;;;;5095728;28;19921;-62
2022/08/04 05:54:30;;;;;;;;;;;24.60;58.70;;;;;;5084038;28;19960;-62
2022/08/04 05:56:56;;;;;;;;;;;24.60;58.70;;;;;;5067048;28;19952;-62
2022/08/04 05:59:24;;;;;;;;;;;24.60;58.80;;;;;;5068566;28;19927;-61
2022/08/04 06:01:52;;;;;;;;;;;24.60;58.70;;;;;;5077321;28;19927;-62
2022/08/04 06:04:19;;;;;;;;;;;24.60;58.70;;;;;;5086003;28;19921;-62
2022/08/04 06:06:46;;;;;;;;;;;24.60;58.70;;;;;;5069436;28;19987;-62
2022/08/04 06:09:13;;;;;;;;;;;24.60;58.70;;;;;;5068901;28;19972;-62
2022/08/04 06:11:40;;;;;;;;;;;24.60;58.70;;;;;;5067310;28;19921;-62
2022/08/04 06:14:07;;;;;;;;;;;24.60;58.70;;;;;;5083144;28;19920;-62
2022/08/04 06:16:35;;;;;;;;;;;24.60;58.70;;;;;;5069921;28;20330;-60
2022/08/04 06:19:04;;;;;;;;;;;24.60;58.70;;;;;;5070881;28;19925;-62
2022/08/04 06:21:30;;;;;;;;;;;24.60;58.70;;;;;;5083461;28;19943;-67
2022/08/04 06:23:57;;;;;;;;;;;24.60;58.70;;;;;;5069469;28;19981;-62
2022/08/04 06:26:24;;;;;;;;;;;24.60;59.30;;;;;;5096814;28;19921;-62
2022/08/04 06:28:51;;;;;;;;;;;24.60;58.70;;;;;;5068373;28;19924;-62
2022/08/04 06:31:31;;;;;;;;;;;24.60;58.70;;;;;;5069949;28;19920;-62
2022/08/04 06:33:59;;;;;;;;;;;24.60;58.70;;;;;;5077574;28;19932;-62
2022/08/04 06:36:27;;;;;;;;;;;24.60;58.70;;;;;;5074885;28;19921;-62
2022/08/04 06:38:54;;;;;;;;;;;24.60;58.70;;;;;;5092503;28;19973;-62
2022/08/04 06:41:20;;;;;;;;;;;24.60;58.60;;;;;;5077026;28;19927;-62
2022/08/04 06:43:47;;;;;;;;;;;24.60;58.60;;;;;;5077653;28;19931;-62
2022/08/04 06:46:14;;;;;;;;;;;24.60;58.60;;;;;;5076902;28;19920;-62
2022/08/04 06:48:40;;;;;;;;;;;24.60;58.60;;;;;;5069788;28;20389;-62
2022/08/04 06:51:07;;;;;;;;;;;24.60;58.60;;;;;;5096162;28;19928;-62
2022/08/04 06:53:36;;;;;;;;;;;24.60;58.60;;;;;;5091607;28;20368;-62
2022/08/04 06:56:02;;;;;;;;;;;24.60;58.60;;;;;;5087367;28;19928;-62
2022/08/04 06:58:30;;;;;;;;;;;24.60;58.50;;;;;;5061721;28;19921;-62
2022/08/04 07:01:00;;;;;;;;;;;24.60;58.70;;;;;;5080644;28;19970;-62
2022/08/04 07:03:27;;;;;;;;;;;24.60;58.80;;;;;;5086459;28;19937;-62
2022/08/04 07:05:54;;;;;;;;;;;24.60;58.80;;;;;;5069284;28;19927;-63
2022/08/04 07:08:20;;;;;;;;;;;24.60;58.80;;;;;;5082022;28;19921;-62
2022/08/04 07:10:49;;;;;;;;;;;24.60;58.80;;;;;;5075007;28;19935;-62
2022/08/04 07:13:15;;;;;;;;;;;24.60;59.40;;;;;;5059879;28;19963;-63
2022/08/04 07:15:43;;;;;;;;;;;24.60;59.00;;;;;;5074303;28;20278;-63
2022/08/04 07:18:10;;;;;;;;;;;24.60;59.00;;;;;;5069232;28;19936;-64
2022/08/04 07:20:39;;;;;;;;;;;24.60;59.00;;;;;;5076260;28;19920;-63
2022/08/04 07:23:06;;;;;;;;;;;24.60;59.00;;;;;;5072919;28;20427;-63
2022/08/04 07:25:33;;;;;;;;;;;24.60;58.90;;;;;;5065539;28;19950;-64
2022/08/04 07:28:01;;;;;;;;;;;24.60;58.80;;;;;;5057597;28;19975;-63
2022/08/04 07:30:28;;;;;;;;;;;24.70;58.90;;;;;;5062767;28;19921;-63
2022/08/04 07:32:55;;;;;;;;;;;24.70;58.90;;;;;;5070483;28;19924;-63
2022/08/04 07:35:22;;;;;;;;;;;24.70;58.80;;;;;;5062029;28;19986;-63
2022/08/04 07:37:48;;;;;;;;;;;24.70;58.80;;;;;;5067589;28;19920;-63
2022/08/04 07:40:15;;;;;;;;;;;24.70;58.80;;;;;;5056298;28;20366;-63
2022/08/04 07:42:42;;;;;;;;;;;24.70;58.80;;;;;;5063227;28;19925;-63
2022/08/04 07:45:10;;;;;;;;;;;24.70;58.70;;;;;;5064823;28;19925;-63
2022/08/04 07:47:39;;;;;;;;;;;24.70;58.70;;;;;;5074271;28;19921;-63
2022/08/04 07:50:06;;;;;;;;;;;24.70;58.70;;;;;;5078458;28;19920;-63
2022/08/04 07:52:33;;;;;;;;;;;24.70;58.80;;;;;;5072244;28;19974;-64
2022/08/04 07:55:00;;;;;;;;;;;24.70;58.70;;;;;;5066061;28;20001;-63
2022/08/04 07:57:27;;;;;;;;;;;24.70;58.70;;;;;;5067834;28;19928;-64
2022/08/04 07:59:56;;;;;;;;;;;24.70;58.70;;;;;;5080895;28;19928;-63
2022/08/04 08:02:24;;;;;;;;;;;24.80;58.70;;;;;;5064729;28;19928;-63
2022/08/04 08:04:51;;;;;;;;;;;24.80;58.70;;;;;;5079979;28;19928;-63
2022/08/04 08:07:18;;;;;;;;;;;24.80;58.80;;;;;;5063550;28;19943;-62
2022/08/04 08:09:45;;;;;;;;;;;24.80;58.80;;;;;;5061051;28;19962;-63
2022/08/04 08:12:12;;;;;;;;;;;24.80;58.80;;;;;;5061947;28;19979;-63
2022/08/04 08:14:39;;;;;;;;;;;24.80;58.80;;;;;;5062190;28;19996;-63
2022/08/04 08:17:06;;;;;;;;;;;24.80;58.80;;;;;;5070746;28;20473;-64
2022/08/04 08:19:34;;;;;;;;;;;24.80;58.80;;;;;;5099926;28;19925;-63
2022/08/04 08:22:01;;;;;;;;;;;24.80;58.80;;;;;;5063434;28;19971;-63
2022/08/04 08:24:28;;;;;;;;;;;24.90;58.90;;;;;;5065807;28;20027;-64
2022/08/04 08:26:55;;;;;;;;;;;24.80;58.80;;;;;;5067871;28;19921;-63
2022/08/04 08:29:23;;;;;;;;;;;24.90;58.90;;;;;;5092973;27;19963;-63
2022/08/04 08:31:49;;;;;;;;;;;24.90;58.90;;;;;;5072179;28;19925;-62
2022/08/04 08:34:16;;;;;;;;;;;24.90;58.90;;;;;;5065390;28;19967;-62
2022/08/04 08:36:45;;;;;;;;;;;24.90;58.80;;;;;;5079686;28;19924;-63
2022/08/04 08:39:13;;;;;;;;;;;24.90;58.80;;;;;;5072843;28;19971;-63
2022/08/04 08:42:13;;;;;;;;;;;24.90;58.90;;;;;;5071073;28;19920;-63
2022/08/04 08:44:55;;;;;;;;;;;24.90;58.90;;;;;;5069973;28;19920;-62
2022/08/04 08:47:37;;;;;;;;;;;24.90;58.90;;;;;;5093186;28;19982;-64
2022/08/04 08:50:13;;;;;;;;;;;24.90;58.90;;;;;;5070787;28;19921;-63
2022/08/04 08:52:47;;;;;;;;;;;24.90;58.80;;;;;;5052877;28;20328;-63
2022/08/04 08:55:18;;;;;;;;;;;24.90;59.00;;;;;;5076298;28;19924;-63
2022/08/04 08:58:11;;;;;;;;;;;24.90;58.90;;;;;;5076592;28;19921;-63
2022/08/04 09:00:42;;;;;;;;;;;24.90;58.90;;;;;;5054202;28;19971;-63
2022/08/04 09:03:18;;;;;;;;;;;25.00;59.00;;;;;;5069174;28;19921;-62
2022/08/04 09:05:51;;;;;;;;;;;24.90;58.90;;;;;;5077986;28;19924;-62
2022/08/04 09:08:26;;;;;;;;;;;25.00;59.00;;;;;;5075290;28;19925;-63
2022/08/04 09:10:53;;;;;;;;;;;25.00;59.00;;;;;;5074066;28;19921;-63
2022/08/04 09:13:20;;;;;;;;;;;25.00;59.00;;;;;;5066485;28;19921;-63
2022/08/04 09:15:47;;;;;;;;;;;25.00;59.00;;;;;;5066059;28;20007;-64
2022/08/04 09:18:17;;;;;;;;;;;25.00;59.00;;;;;;5091483;28;19963;-64
2022/08/04 09:20:45;;;;;;;;;;;25.00;59.00;;;;;;5082526;28;19962;-64
2022/08/04 09:23:14;;;;;;;;;;;25.00;59.00;;;;;;5058253;28;19971;-63
2022/08/04 09:25:44;;;;;;;;;;;25.00;59.00;;;;;;5072758;28;20317;-64
2022/08/04 09:28:13;;;;;;;;;;;25.00;59.00;;;;;;5069842;28;20366;-64
2022/08/04 09:30:40;;;;;;;;;;;25.00;59.00;;;;;;5076063;28;20362;-64
2022/08/04 09:33:10;;;;;;;;;;;25.00;59.00;;;;;;5073007;28;19932;-63
2022/08/04 09:35:38;;;;;;;;;;;25.00;59.00;;;;;;5080657;28;19932;-64
2022/08/04 09:38:07;;;;;;;;;;;25.00;59.00;;;;;;5060070;28;20361;-63
2022/08/04 09:40:34;;;;;;;;;;;25.00;59.00;;;;;;5069002;28;19921;-63
2022/08/04 09:43:05;;;;;;;;;;;25.10;59.00;;;;;;5069122;28;19924;-63
2022/08/04 09:45:33;;;;;;;;;;;25.10;59.10;;;;;;5070933;28;19947;-63
2022/08/04 09:48:02;;;;;;;;;;;25.10;59.20;;;;;;5074421;28;20370;-63
2022/08/04 09:50:32;;;;;;;;;;;25.10;59.20;;;;;;5098121;28;20340;-61
2022/08/04 09:53:03;;;;;;;;;;;25.10;59.20;;;;;;5065143;28;19928;-63
2022/08/04 09:55:37;;;;;;;;;;;25.10;59.20;;;;;;5055264;28;19927;-63
2022/08/04 09:58:07;;;;;;;;;;;25.10;59.20;;;;;;5069230;28;19952;-64
2022/08/04 10:00:35;;;;;;;;;;;25.10;59.10;;;;;;5061899;28;19932;-63
2022/08/04 10:03:01;;;;;;;;;;;25.10;59.10;;;;;;5068814;28;19925;-64
2022/08/04 10:05:35;;;;;;;;;;;25.10;59.10;;;;;;5060107;28;19921;-64
2022/08/04 10:08:10;;;;;;;;;;;25.20;59.10;;;;;;5061143;28;19978;-64
2022/08/04 10:10:38;;;;;;;;;;;25.10;59.00;;;;;;5082127;28;20358;-63
2022/08/04 10:13:13;;;;;;;;;;;25.10;59.00;;;;;;5075230;28;20339;-62
2022/08/04 10:15:40;;;;;;;;;;;25.10;58.90;;;;;;5081376;28;19924;-63
2022/08/04 10:18:12;;;;;;;;;;;25.10;58.90;;;;;;5102356;28;20005;-63
2022/08/04 10:20:55;;;;;;;;;;;25.20;59.00;;;;;;5066355;28;19935;-63
2022/08/04 10:23:26;;;;;;;;;;;25.10;58.90;;;;;;5069495;28;19920;-63
2022/08/04 10:25:56;;;;;;;;;;;25.20;58.90;;;;;;5075033;28;20011;-63
2022/08/04 10:28:24;;;;;;;;;;;25.20;58.90;;;;;;5055464;28;19920;-64
2022/08/04 10:30:52;;;;;;;;;;;25.20;58.90;;;;;;5084055;28;19920;-63
2022/08/04 10:33:21;;;;;;;;;;;25.20;58.90;;;;;;5077951;28;19920;-64
2022/08/04 10:35:49;;;;;;;;;;;25.20;58.80;;;;;;5067647;28;20344;-63
2022/08/04 10:38:16;;;;;;;;;;;25.20;58.70;;;;;;5069626;28;19920;-64
2022/08/04 10:40:45;;;;;;;;;;;25.20;58.80;;;;;;5061575;28;19920;-64
2022/08/04 10:43:15;;;;;;;;;;;25.20;58.70;;;;;;5068569;28;19958;-65
2022/08/04 10:45:44;;;;;;;;;;;25.20;58.60;;;;;;5071464;28;19943;-65
2022/08/04 10:48:13;;;;;;;;;;;25.20;58.60;;;;;;5094038;28;19928;-64
2022/08/04 10:50:42;;;;;;;;;;;25.20;58.60;;;;;;5067160;28;19927;-64
2022/08/04 10:53:09;;;;;;;;;;;25.20;58.50;;;;;;5092073;28;19928;-64
2022/08/04 10:55:38;;;;;;;;;;;25.20;58.50;;;;;;5065633;28;19928;-64
2022/08/04 10:58:05;;;;;;;;;;;25.20;58.40;;;;;;5074452;28;20391;-63
2022/08/04 11:00:33;;;;;;;;;;;25.20;58.40;;;;;;5071335;28;19976;-63
2022/08/04 11:03:08;;;;;;;;;;;25.20;58.30;;;;;;5069691;28;19956;-63
2022/08/04 11:05:38;;;;;;;;;;;25.20;58.30;;;;;;5058941;28;19930;-62
2022/08/04 11:08:05;;;;;;;;;;;25.20;58.10;;;;;;5056700;28;19960;-62
2022/08/04 11:10:35;;;;;;;;;;;25.20;58.10;;;;;;5065132;28;19920;-63
2022/08/04 11:13:04;;;;;;;;;;;25.20;58.00;;;;;;5060576;28;19924;-62
2022/08/04 11:15:33;;;;;;;;;;;25.20;58.00;;;;;;5087262;28;19959;-62
2022/08/04 11:18:01;;;;;;;;;;;25.20;57.90;;;;;;5071425;28;19921;-62
2022/08/04 11:20:30;;;;;;;;;;;25.20;57.90;;;;;;5106963;27;19931;-62
2022/08/04 11:22:59;;;;;;;;;;;25.20;57.80;;;;;;5074047;28;20019;-61
2022/08/04 11:25:27;;;;;;;;;;;25.20;58.40;;;;;;5078806;28;19926;-62
2022/08/04 11:27:56;;;;;;;;;;;25.20;57.70;;;;;;5059309;28;20255;-61
2022/08/04 11:30:23;;;;;;;;;;;25.20;57.70;;;;;;5078176;28;19932;-62
2022/08/04 11:32:52;;;;;;;;;;;25.20;57.60;;;;;;5099890;28;19923;-62
2022/08/04 11:35:22;;;;;;;;;;;25.20;57.50;;;;;;5097102;28;19934;-62
2022/08/04 11:37:50;;;;;;;;;;;25.20;57.50;;;;;;5095411;28;19923;-62
2022/08/04 11:40:21;;;;;;;;;;;25.20;57.40;;;;;;5073318;28;19947;-62
2022/08/04 11:42:51;;;;;;;;;;;25.20;57.40;;;;;;5074073;28;19960;-62
2022/08/04 11:45:19;;;;;;;;;;;25.20;57.40;;;;;;5077665;28;19970;-62
2022/08/04 11:47:47;;;;;;;;;;;25.20;57.30;;;;;;5070195;28;19944;-62
2022/08/04 11:50:15;;;;;;;;;;;25.20;57.20;;;;;;5092423;28;19920;-63
2022/08/04 11:52:42;;;;;;;;;;;25.20;57.20;;;;;;5077817;28;19920;-62
2022/08/04 11:55:12;;;;;;;;;;;25.20;57.10;;;;;;5092390;28;20002;-62
2022/08/04 11:57:38;;;;;;;;;;;25.20;57.10;;;;;;5064747;28;19927;-62
2022/08/04 12:00:08;;;;;;;;;;;25.20;57.10;;;;;;5077086;28;19920;-62
2022/08/04 12:02:53;;;;;;;;;;;25.20;57.00;;;;;;5093475;28;20486;-62
2022/08/04 12:05:20;;;;;;;;;;;25.20;57.00;;;;;;5077098;28;20008;-62
2022/08/04 12:07:50;;;;;;;;;;;25.20;57.00;;;;;;5088512;28;19970;-62
2022/08/04 12:10:32;;;;;;;;;;;25.20;56.90;;;;;;5077092;28;19927;-63
2022/08/04 12:13:01;;;;;;;;;;;25.20;56.90;;;;;;5072496;28;19936;-63
2022/08/04 12:15:29;;;;;;;;;;;25.20;56.80;;;;;;5087142;28;20003;-62
2022/08/04 12:17:58;;;;;;;;;;;25.20;56.80;;;;;;5071085;28;19927;-62
2022/08/04 12:20:25;;;;;;;;;;;25.20;56.80;;;;;;5097045;28;20019;-62
2022/08/04 12:22:51;;;;;;;;;;;25.20;56.80;;;;;;5077605;28;19946;-62
2022/08/04 12:25:20;;;;;;;;;;;25.20;56.70;;;;;;5079158;28;19931;-62
2022/08/04 12:27:47;;;;;;;;;;;25.20;56.70;;;;;;5078027;28;20624;-63
2022/08/04 12:30:15;;;;;;;;;;;25.20;56.70;;;;;;5090754;28;19920;-63
2022/08/04 12:32:43;;;;;;;;;;;25.20;56.70;;;;;;5111130;27;19924;-63
2022/08/04 12:35:13;;;;;;;;;;;25.30;56.70;;;;;;5068290;28;19928;-63
2022/08/04 12:37:43;;;;;;;;;;;25.20;56.50;;;;;;5074178;28;19920;-63
2022/08/04 12:40:13;;;;;;;;;;;25.20;56.50;;;;;;5077699;28;19963;-63
2022/08/04 12:42:42;;;;;;;;;;;25.30;56.50;;;;;;5077841;28;19928;-63
2022/08/04 12:45:09;;;;;;;;;;;25.30;56.50;;;;;;5078121;28;19920;-63
2022/08/04 12:47:37;;;;;;;;;;;25.30;56.50;;;;;;5076849;28;19931;-62
2022/08/04 12:50:04;;;;;;;;;;;25.30;57.10;;;;;;5072174;28;19928;-62
2022/08/04 12:52:31;;;;;;;;;;;25.30;56.50;;;;;;5079058;28;20015;-62
2022/08/04 12:54:58;;;;;;;;;;;25.30;56.40;;;;;;5087118;28;19925;-63
2022/08/04 12:57:25;;;;;;;;;;;25.30;56.40;;;;;;5079307;28;20384;-62
2022/08/04 12:59:52;;;;;;;;;;;25.30;56.40;;;;;;5074814;28;19962;-62
2022/08/04 13:02:23;;;;;;;;;;;25.30;56.40;;;;;;5072862;28;19997;-62
2022/08/04 13:04:51;;;;;;;;;;;25.30;56.40;;;;;;5108401;27;19974;-62
2022/08/04 13:07:19;;;;;;;;;;;25.30;56.90;;;;;;5090438;28;20011;-62
2022/08/04 13:09:46;;;;;;;;;;;25.30;56.30;;;;;;5107629;27;19931;-62
2022/08/04 13:12:13;;;;;;;;;;;25.30;56.30;;;;;;5088442;28;19973;-63
2022/08/04 13:14:43;;;;;;;;;;;25.30;56.30;;;;;;5076681;28;19929;-62
2022/08/04 13:17:09;;;;;;;;;;;25.30;56.30;;;;;;5076539;28;20010;-63
2022/08/04 13:19:36;;;;;;;;;;;25.30;56.20;;;;;;5091015;28;19951;-62
2022/08/04 13:22:05;;;;;;;;;;;25.30;56.20;;;;;;5067808;28;20270;-62
2022/08/04 13:24:32;;;;;;;;;;;25.30;56.10;;;;;;5099944;27;19999;-63
2022/08/04 13:27:00;;;;;;;;;;;25.30;56.20;;;;;;5061242;28;20008;-63
2022/08/04 13:29:31;;;;;;;;;;;25.30;56.10;;;;;;5087464;28;19924;-64
2022/08/04 13:31:57;;;;;;;;;;;25.30;56.10;;;;;;5066993;28;20332;-63
2022/08/04 13:34:24;;;;;;;;;;;25.30;56.10;;;;;;5070299;28;20010;-63
2022/08/04 13:36:51;;;;;;;;;;;25.30;56.00;;;;;;5075016;28;19932;-63
2022/08/04 13:39:19;;;;;;;;;;;25.30;56.00;;;;;;5078921;28;19932;-63
2022/08/04 13:41:49;;;;;;;;;;;25.30;56.10;;;;;;5066731;28;19925;-63
2022/08/04 13:44:18;;;;;;;;;;;25.30;55.90;;;;;;5063990;28;19921;-63
2022/08/04 13:46:45;;;;;;;;;;;25.30;55.90;;;;;;5061894;28;19924;-63
2022/08/04 13:49:12;;;;;;;;;;;25.30;55.90;;;;;;5069448;28;19921;-63
2022/08/04 13:51:39;;;;;;;;;;;25.30;55.80;;;;;;5071495;28;19971;-63
2022/08/04 13:54:06;;;;;;;;;;;25.30;55.80;;;;;;5108564;27;19927;-63
2022/08/04 13:56:36;;;;;;;;;;;25.30;55.80;;;;;;5086217;28;20358;-63
2022/08/04 13:59:03;;;;;;;;;;;25.30;55.80;;;;;;5105043;27;19920;-64
2022/08/04 14:01:30;;;;;;;;;;;25.30;55.70;;;;;;5088748;28;19920;-64
2022/08/04 14:03:59;;;;;;;;;;;25.30;55.70;;;;;;5057722;28;19932;-63
2022/08/04 14:06:26;;;;;;;;;;;25.30;55.70;;;;;;5067687;28;19924;-64
2022/08/04 14:08:54;;;;;;;;;;;25.30;55.70;;;;;;5080526;28;20427;-64
2022/08/04 14:11:21;;;;;;;;;;;25.30;55.70;;;;;;5069346;28;19967;-63
2022/08/04 14:13:49;;;;;;;;;;;25.30;55.70;;;;;;5055257;28;19920;-62
2022/08/04 14:16:16;;;;;;;;;;;25.30;55.60;;;;;;5099197;28;20284;-63
2022/08/04 14:18:43;;;;;;;;;;;25.30;55.60;;;;;;5072403;28;19928;-61
2022/08/04 14:21:10;;;;;;;;;;;25.30;56.20;;;;;;5051706;28;19921;-64
2022/08/04 14:23:41;;;;;;;;;;;25.30;55.60;;;;;;5053758;28;19921;-64
2022/08/04 14:26:15;;;;;;;;;;;25.30;55.60;;;;;;5059334;28;19934;-64
2022/08/04 14:28:42;;;;;;;;;;;25.30;55.50;;;;;;5068577;28;19924;-63
2022/08/04 14:31:10;;;;;;;;;;;25.30;55.50;;;;;;5076246;28;19924;-63
2022/08/04 14:33:37;;;;;;;;;;;25.30;55.50;;;;;;5057231;28;19920;-63
2022/08/04 14:36:04;;;;;;;;;;;25.30;55.50;;;;;;5070580;28;20362;-63